Rhinelander, Wisconsin
Current Conditions -  °F | °C
As of 10:01 AM on Friday 24 Oct 2014 (Local Time) from KRHI Reporting Station
Moderate Fog Moderate Fog  
Wind Chill: 41°   Ceiling: 200
Heat Index: 44°   Visibility: 0.25mi
Dew Point: 44°   Wind: 6mph
Humidity: 100%   Direction: 190°S
Pressure: 29.98"   Gusts: NA
Location:  45.64°N, 89.41°W
Report Text: KRHI 241501Z AUTO 19005KT 1/4SM FG VV002 07/07 A2998 RMK AO2 T00670067
Loading
Personal Weather Stations






























Interactive Weather Map
Tropical Storm Tracking
New forecast layout! Learn more

10-Day Weather Forecast

Advertisements
Track Severe Weather on mobile